Al Hamla — V7MX9 — position and weather

sailwx.info

Track history (hours):
 
Tides and Currents Weather Stations Pressure Air Temp Water Temp Dewpoint Dewpoint Depression Visibility Wind Speed Wind Dir Waves Ship Positions

Al Hamla

Last reported at 2016-May-17 19:25 UTC. Time now 2016-Aug-27 15:11 UTC.
Position N 31°24' E 032°17'.
Warning: this ship's position is months out of date.

Length 333 m; draft 9.7 m.

Type: Tanker. MMSI: 538002922.

Date/timePositionNaut miles runAvg speedWind from/ knotsBaromVisibWave heightAir tempDewpointWater temp
2016-May-17 19:25N 31°24' E 032°17'0 0.0
2016-May-17 17:31N 31°24' E 032°17'0 0.0
2016-May-17 16:09N 31°24' E 032°17'0 0.1
2016-May-17 15:34N 31°24' E 032°17'0 0.0
2016-May-17 14:28N 31°24' E 032°17'0 0.0
2016-May-17 13:32N 31°24' E 032°17'0 0.1
2016-May-17 12:33N 31°24' E 032°17'3 2.9
2016-May-17 11:33N 31°26' E 032°17'1212.4
2016-May-17 10:34N 31°36' E 032°08'1616.2
2016-May-17 09:33N 31°46' E 031°53'1716.4
2016-May-17 08:32N 31°52' E 031°35'1616.3
2016-May-17 07:34N 31°58' E 031°17'1616.3
2016-May-17 06:33N 32°04' E 030°59'1616.3
2016-May-17 05:34N 32°09' E 030°41'  
2016-May-15 01:33N 36°14' E 014°53'1616.4
2016-May-15 00:33N 36°18' E 014°33'1616.4
2016-May-14 23:33N 36°23' E 014°14'1716.4
2016-May-14 22:33N 36°28' E 013°54'2316.3
2016-May-14 21:07N 36°35' E 013°27'  
2016-May-12 14:16N 35°59' W 005°11'1419.9
2016-May-12 13:33N 35°57' W 005°28'  
2016-May-10 00:27N 48°50' W 005°53'1517.3
2016-May-09 23:34N 49°00' W 005°35'1312.6
2016-May-09 22:33N 49°07' W 005°18'5316.0
2016-May-09 19:17N 49°33' W 004°09'2715.4
2016-May-09 17:33N 49°46' W 003°33'1717.2
2016-May-09 16:33N 49°55' W 003°10'1919.1
2016-May-09 15:33N 50°03' W 002°43'7411.7
2016-May-09 09:15N 50°21' W 000°51'1014.6
2016-May-09 08:33N 50°22' W 000°35'1616.2
2016-May-09 07:33N 50°25' W 000°10'1918.4
2016-May-09 06:31N 50°31' E 000°19'4218.1
2016-May-09 04:13N 50°55' E 001°12'1116.2
2016-May-09 03:34N 51°02' E 001°24'1414.5
2016-May-09 02:33N 51°12' E 001°42'1413.6
2016-May-09 01:33N 51°24' E 001°52'1514.6
2016-May-09 00:33N 51°38' E 001°46'1414.4
2016-May-08 23:34N 51°51' E 001°37'10 9.8
2016-May-08 22:33N 51°43' E 001°29'1414.2
2016-May-08 21:33N 51°34' E 001°11'8 8.5
2016-May-08 20:33N 51°29' E 000°60'1010.2
2016-May-08 19:33N 51°26' E 000°44'1 1.1
2016-May-08 18:28N 51°26' E 000°42'0 0.0
2016-May-08 17:29N 51°26' E 000°42'0 0.0
2016-May-08 16:33N 51°26' E 000°42'0 0.0
2016-May-08 15:34N 51°26' E 000°42'0 0.0
2016-May-08 14:34N 51°26' E 000°42'0 0.0
2016-May-08 13:33N 51°26' E 000°42'0 0.0
2016-May-08 12:33N 51°26' E 000°42'0 0.0
2016-May-08 11:33N 51°26' E 000°42'0 0.0
2016-May-08 10:33N 51°26' E 000°42'0 0.0
2016-May-08 09:31N 51°26' E 000°42'0 0.0
2016-May-08 08:24N 51°26' E 000°42'0 0.0
2016-May-08 07:33N 51°26' E 000°42'0 0.0
2016-May-08 06:33N 51°26' E 000°42'0 0.0
2016-May-08 05:33N 51°26' E 000°42'0 0.0
2016-May-08 04:34N 51°26' E 000°42'0 0.0
2016-May-08 03:33N 51°26' E 000°42'0 0.0
2016-May-08 02:33N 51°26' E 000°42'0 0.0
2016-May-08 01:34N 51°26' E 000°42'0 0.0
2016-May-08 00:33N 51°26' E 000°42'0 0.0
2016-May-07 23:33N 51°26' E 000°42'0 0.0
2016-May-07 22:33N 51°26' E 000°42'0 0.0
2016-May-07 21:33N 51°26' E 000°42'0 0.0
2016-May-07 20:33N 51°26' E 000°42'  
Track history (hours):
 
Tides and Currents Weather Stations Pressure Air Temp Water Temp Dewpoint Dewpoint Depression Visibility Wind Speed Wind Dir Waves Ship Positions

Al Hamla

Last reported at 2016-May-17 19:25 UTC. Time now 2016-Aug-27 15:11 UTC.
Position N 31°24' E 032°17'.
Warning: this ship's position is months out of date.

Length 333 m; draft 9.7 m.

Type: Tanker. MMSI: 538002922.

Date/timePositionNaut miles runAvg speedWind from/ knotsBaromVisibWave heightAir tempDewpointWater temp
2016-May-17 19:25N 31°24' E 032°17'0 0.0
2016-May-17 17:31N 31°24' E 032°17'0 0.0
2016-May-17 16:09N 31°24' E 032°17'0 0.1
2016-May-17 15:34N 31°24' E 032°17'0 0.0
2016-May-17 14:28N 31°24' E 032°17'0 0.0
2016-May-17 13:32N 31°24' E 032°17'0 0.1
2016-May-17 12:33N 31°24' E 032°17'3 2.9
2016-May-17 11:33N 31°26' E 032°17'1212.4
2016-May-17 10:34N 31°36' E 032°08'1616.2
2016-May-17 09:33N 31°46' E 031°53'1716.4
2016-May-17 08:32N 31°52' E 031°35'1616.3
2016-May-17 07:34N 31°58' E 031°17'1616.3
2016-May-17 06:33N 32°04' E 030°59'1616.3
2016-May-17 05:34N 32°09' E 030°41'  
2016-May-15 01:33N 36°14' E 014°53'1616.4
2016-May-15 00:33N 36°18' E 014°33'1616.4
2016-May-14 23:33N 36°23' E 014°14'1716.4
2016-May-14 22:33N 36°28' E 013°54'2316.3
2016-May-14 21:07N 36°35' E 013°27'  
2016-May-12 14:16N 35°59' W 005°11'1419.9
2016-May-12 13:33N 35°57' W 005°28'  
2016-May-10 00:27N 48°50' W 005°53'1517.3
2016-May-09 23:34N 49°00' W 005°35'1312.6
2016-May-09 22:33N 49°07' W 005°18'5316.0
2016-May-09 19:17N 49°33' W 004°09'2715.4
2016-May-09 17:33N 49°46' W 003°33'1717.2
2016-May-09 16:33N 49°55' W 003°10'1919.1
2016-May-09 15:33N 50°03' W 002°43'7411.7
2016-May-09 09:15N 50°21' W 000°51'1014.6
2016-May-09 08:33N 50°22' W 000°35'1616.2
2016-May-09 07:33N 50°25' W 000°10'1918.4
2016-May-09 06:31N 50°31' E 000°19'4218.1
2016-May-09 04:13N 50°55' E 001°12'1116.2
2016-May-09 03:34N 51°02' E 001°24'1414.5
2016-May-09 02:33N 51°12' E 001°42'1413.6
2016-May-09 01:33N 51°24' E 001°52'1514.6
2016-May-09 00:33N 51°38' E 001°46'1414.4
2016-May-08 23:34N 51°51' E 001°37'10 9.8
2016-May-08 22:33N 51°43' E 001°29'1414.2
2016-May-08 21:33N 51°34' E 001°11'8 8.5
2016-May-08 20:33N 51°29' E 000°60'1010.2
2016-May-08 19:33N 51°26' E 000°44'1 1.1
2016-May-08 18:28N 51°26' E 000°42'0 0.0
2016-May-08 17:29N 51°26' E 000°42'0 0.0
2016-May-08 16:33N 51°26' E 000°42'0 0.0
2016-May-08 15:34N 51°26' E 000°42'0 0.0
2016-May-08 14:34N 51°26' E 000°42'0 0.0
2016-May-08 13:33N 51°26' E 000°42'0 0.0
2016-May-08 12:33N 51°26' E 000°42'0 0.0
2016-May-08 11:33N 51°26' E 000°42'0 0.0
2016-May-08 10:33N 51°26' E 000°42'0 0.0
2016-May-08 09:31N 51°26' E 000°42'0 0.0
2016-May-08 08:24N 51°26' E 000°42'0 0.0
2016-May-08 07:33N 51°26' E 000°42'0 0.0
2016-May-08 06:33N 51°26' E 000°42'0 0.0
2016-May-08 05:33N 51°26' E 000°42'0 0.0
2016-May-08 04:34N 51°26' E 000°42'0 0.0
2016-May-08 03:33N 51°26' E 000°42'0 0.0
2016-May-08 02:33N 51°26' E 000°42'0 0.0
2016-May-08 01:34N 51°26' E 000°42'0 0.0
2016-May-08 00:33N 51°26' E 000°42'0 0.0
2016-May-07 23:33N 51°26' E 000°42'0 0.0
2016-May-07 22:33N 51°26' E 000°42'0 0.0
2016-May-07 21:33N 51°26' E 000°42'0 0.0
2016-May-07 20:33N 51°26' E 000°42'  

Dump ship's entire track history